Time;durP1;ratioP1;P1;durP2;ratioP2;P2;SDS_P1;SDS_P2;PMS_P1;PMS_P2;Temp;Humidity;BMP_temperature;BMP_pressure;BME280_temperature;BME280_humidity;BME280_pressure;Samples;Min_cycle;Max_cycle;Signal;HPM_P1;HPM_P2
2023/01/04 00:01:46;;;;;;;;;;;;;;;7.65;100;101657.3;;;;-78
2023/01/04 00:06:46;;;;;;;;;;;;;;;7.67;100;101636.8;;;;-79
2023/01/04 00:11:46;;;;;;;;;;;;;;;7.67;100;101629.8;;;;-78
2023/01/04 00:16:46;;;;;;;;;;;;;;;7.66;100;101617;;;;-79
2023/01/04 00:21:46;;;;;;;;;;;;;;;7.69;100;101614.2;;;;-75
2023/01/04 00:26:46;;;;;;;;;;;;;;;7.69;100;101599.1;;;;-74
2023/01/04 00:26:56;;;;;;;5.2;2.3;;;;;;;;;;;;;-74
2023/01/04 00:31:47;;;;;;;;;;;;;;;7.72;100;101594.4;;;;-78
2023/01/04 00:36:47;;;;;;;;;;;;;;;7.73;100;101579.4;;;;-79
2023/01/04 00:41:47;;;;;;;;;;;;;;;7.74;100;101580.3;;;;-79
2023/01/04 00:46:47;;;;;;;;;;;;;;;7.73;100;101566.3;;;;-78
2023/01/04 00:51:46;;;;;;;;;;;;;;;7.75;100;101560.6;;;;-80
2023/01/04 00:56:46;;;;;;;;;;;;;;;7.77;100;101554.8;;;;-78
2023/01/04 00:56:56;;;;;;;3.6;1.7;;;;;;;;;;;;;-78
2023/01/04 01:01:47;;;;;;;;;;;;;;;7.77;100;101543.3;;;;-78
2023/01/04 01:06:46;;;;;;;;;;;;;;;7.8;100;101536.7;;;;-76
2023/01/04 01:11:46;;;;;;;;;;;;;;;7.79;100;101535.1;;;;-76
2023/01/04 01:16:46;;;;;;;;;;;;;;;7.83;100;101519;;;;-75
2023/01/04 01:21:47;;;;;;;;;;;;;;;7.84;100;101514.6;;;;-76
2023/01/04 01:26:46;;;;;;;;;;;;;;;7.87;100;101505.5;;;;-76
2023/01/04 01:26:56;;;;;;;1.9;1.2;;;;;;;;;;;;;-76
2023/01/04 01:31:46;;;;;;;;;;;;;;;7.92;100;101496.3;;;;-76
2023/01/04 01:36:46;;;;;;;;;;;;;;;7.97;100;101495.2;;;;-76
2023/01/04 01:41:46;;;;;;;;;;;;;;;8.02;100;101489.7;;;;-76
2023/01/04 01:46:48;;;;;;;;;;;;;;;8.07;100;101474.9;;;;-76
2023/01/04 01:51:47;;;;;;;;;;;;;;;8.12;100;101476.4;;;;-76
2023/01/04 01:56:47;;;;;;;;;;;;;;;8.16;100;101463.1;;;;-76
2023/01/04 01:57:00;;;;;;;5.4;1.7;;;;;;;;;;;;;-76
2023/01/04 02:01:47;;;;;;;;;;;;;;;8.25;100;101464;;;;-75
2023/01/04 02:06:48;;;;;;;;;;;;;;;8.32;100;101470;;;;-75
2023/01/04 02:11:46;;;;;;;;;;;;;;;8.34;100;101461.6;;;;-75
2023/01/04 02:16:55;;;;;;;;;;;;;;;8.41;100;101441.4;;;;-75
2023/01/04 02:21:52;;;;;;;;;;;;;;;8.46;100;101449.4;;;;-74
2023/01/04 02:26:57;;;;;;;;;;;;;;;8.53;100;101456.8;;;;-75
2023/01/04 02:27:19;;;;;;;5;2.8;;;;;;;;;;;;;-75
2023/01/04 02:31:48;;;;;;;;;;;;;;;8.61;100;101456.1;;;;-74
2023/01/04 02:36:52;;;;;;;;;;;;;;;8.65;100;101436;;;;-75
2023/01/04 02:41:49;;;;;;;;;;;;;;;8.71;100;101423.3;;;;-74
2023/01/04 02:46:49;;;;;;;;;;;;;;;8.79;100;101420;;;;-74
2023/01/04 02:51:46;;;;;;;;;;;;;;;8.87;100;101422.1;;;;-74
2023/01/04 02:56:56;;;;;;;;;;;;;;;8.93;100;101429.9;;;;-74
2023/01/04 02:57:24;;;;;;;7.7;3.3;;;;;;;;;;;;;-74
2023/01/04 03:06:53;;;;;;;;;;;;;;;9.05;100;101438.9;;;;-74
2023/01/04 03:16:47;;;;;;;;;;;;;;;9.19;100;101431.6;;;;-75
2023/01/04 03:21:49;;;;;;;;;;;;;;;9.27;100;101422.8;;;;-74
2023/01/04 03:36:55;;;;;;;;;;;;;;;9.42;100;101407.5;;;;-73
2023/01/04 03:51:48;;;;;;;;;;;;;;;9.48;100;101376.2;;;;-73
2023/01/04 03:56:48;;;;;;;;;;;;;;;9.49;100;101373.9;;;;-73
2023/01/04 03:56:57;;;;;;;4.9;1.8;;;;;;;;;;;;;-73
2023/01/04 04:01:47;;;;;;;;;;;;;;;9.56;100;101362;;;;-73
2023/01/04 04:11:46;;;;;;;;;;;;;;;9.66;100;101345.4;;;;-73
2023/01/04 04:16:46;;;;;;;;;;;;;;;9.66;100;101347.3;;;;-76
2023/01/04 04:21:46;;;;;;;;;;;;;;;9.67;100;101326.9;;;;-75
2023/01/04 04:26:46;;;;;;;;;;;;;;;9.67;100;101337.3;;;;-75
2023/01/04 04:26:56;;;;;;;4.3;1.6;;;;;;;;;;;;;-75
2023/01/04 04:31:46;;;;;;;;;;;;;;;9.67;100;101316;;;;-74
2023/01/04 04:36:46;;;;;;;;;;;;;;;9.72;100;101316;;;;-75
2023/01/04 04:41:46;;;;;;;;;;;;;;;9.74;100;101332.6;;;;-74
2023/01/04 04:46:46;;;;;;;;;;;;;;;9.75;100;101307.5;;;;-75
2023/01/04 04:51:46;;;;;;;;;;;;;;;9.8;100;101317.6;;;;-75
2023/01/04 04:56:46;;;;;;;;;;;;;;;9.84;100;101287;;;;-73
2023/01/04 04:56:56;;;;;;;11.6;2;;;;;;;;;;;;;-73
2023/01/04 05:01:46;;;;;;;;;;;;;;;9.86;100;101279.4;;;;-74
2023/01/04 05:06:46;;;;;;;;;;;;;;;9.89;100;101299.3;;;;-74
2023/01/04 05:16:46;;;;;;;;;;;;;;;9.89;100;101250.5;;;;-75
2023/01/04 05:21:46;;;;;;;;;;;;;;;9.89;100;101230.4;;;;-75
2023/01/04 05:26:46;;;;;;;;;;;;;;;9.91;100;101236.9;;;;-76
2023/01/04 05:26:55;;;;;;;7.5;1.1;;;;;;;;;;;;;-76
2023/01/04 05:31:46;;;;;;;;;;;;;;;9.93;100;101237.3;;;;-76
2023/01/04 05:36:46;;;;;;;;;;;;;;;9.91;100;101242.9;;;;-76
2023/01/04 05:46:46;;;;;;;;;;;;;;;9.95;100;101280.9;;;;-75
2023/01/04 05:51:46;;;;;;;;;;;;;;;9.97;100;101284.2;;;;-75
2023/01/04 05:56:46;;;;;;;;;;;;;;;9.99;100;101281.1;;;;-76
2023/01/04 05:56:55;;;;;;;3.2;0.8;;;;;;;;;;;;;-76
2023/01/04 06:01:46;;;;;;;;;;;;;;;10.01;100;101272;;;;-75
2023/01/04 06:06:46;;;;;;;;;;;;;;;10.03;100;101280.3;;;;-76
2023/01/04 06:11:46;;;;;;;;;;;;;;;10.05;100;101302.3;;;;-75
2023/01/04 06:16:46;;;;;;;;;;;;;;;10.05;100;101273.8;;;;-75
2023/01/04 06:21:47;;;;;;;;;;;;;;;10.08;100;101262.2;;;;-75
2023/01/04 06:26:46;;;;;;;;;;;;;;;10.06;100;101263.7;;;;-75
2023/01/04 06:26:55;;;;;;;9.7;1.8;;;;;;;;;;;;;-75
2023/01/04 06:31:47;;;;;;;;;;;;;;;10.07;100;101268.2;;;;-74
2023/01/04 06:36:46;;;;;;;;;;;;;;;10.07;100;101273.2;;;;-74
2023/01/04 06:41:46;;;;;;;;;;;;;;;10.08;100;101264.7;;;;-75
2023/01/04 06:46:46;;;;;;;;;;;;;;;10.08;100;101257.6;;;;-75
2023/01/04 06:51:46;;;;;;;;;;;;;;;10.1;100;101249.4;;;;-75
2023/01/04 06:56:48;;;;;;;;;;;;;;;10.09;100;101259.3;;;;-75
2023/01/04 06:56:58;;;;;;;6.6;1.6;;;;;;;;;;;;;-75
2023/01/04 07:01:46;;;;;;;;;;;;;;;10.09;100;101235;;;;-76
2023/01/04 07:06:46;;;;;;;;;;;;;;;10.09;100;101244.8;;;;-73
2023/01/04 07:11:46;;;;;;;;;;;;;;;10.08;100;101241.6;;;;-75
2023/01/04 07:16:46;;;;;;;;;;;;;;;10.06;100;101239.1;;;;-75
2023/01/04 07:21:46;;;;;;;;;;;;;;;10.07;100;101231.8;;;;-76
2023/01/04 07:26:46;;;;;;;;;;;;;;;10.05;100;101219.1;;;;-75
2023/01/04 07:26:57;;;;;;;10.7;1.5;;;;;;;;;;;;;-75
2023/01/04 07:31:47;;;;;;;;;;;;;;;10.06;100;101217.2;;;;-76
2023/01/04 07:36:47;;;;;;;;;;;;;;;10.04;100;101212;;;;-76
2023/01/04 07:41:46;;;;;;;;;;;;;;;10.04;100;101201.4;;;;-76
2023/01/04 07:46:46;;;;;;;;;;;;;;;10.04;100;101205.4;;;;-76
2023/01/04 07:51:46;;;;;;;;;;;;;;;10.03;100;101187.3;;;;-76
2023/01/04 07:56:46;;;;;;;;;;;;;;;10.03;100;101199.7;;;;-76
2023/01/04 07:56:57;;;;;;;5.7;1;;;;;;;;;;;;;-76
2023/01/04 08:01:47;;;;;;;;;;;;;;;10.02;100;101206.4;;;;-77
2023/01/04 08:06:46;;;;;;;;;;;;;;;10.01;100;101218.1;;;;-75
2023/01/04 08:11:46;;;;;;;;;;;;;;;10.01;100;101212.6;;;;-77
2023/01/04 08:16:46;;;;;;;;;;;;;;;10.01;100;101228.6;;;;-76
2023/01/04 08:21:50;;;;;;;;;;;;;;;10.02;100;101234.9;;;;-77
2023/01/04 08:26:47;;;;;;;;;;;;;;;10.03;100;101258.4;;;;-76
2023/01/04 08:27:10;;;;;;;6;1.2;;;;;;;;;;;;;-76
2023/01/04 08:31:49;;;;;;;;;;;;;;;10.03;100;101241.4;;;;-76
2023/01/04 08:36:57;;;;;;;;;;;;;;;10.03;100;101246.4;;;;-77
2023/01/04 08:41:56;;;;;;;;;;;;;;;10.04;100;101244.8;;;;-75
2023/01/04 08:46:46;;;;;;;;;;;;;;;10.05;100;101255.3;;;;-76
2023/01/04 08:51:49;;;;;;;;;;;;;;;10.06;100;101255.2;;;;-77
2023/01/04 08:56:46;;;;;;;;;;;;;;;10.06;100;101287.6;;;;-76
2023/01/04 08:57:21;;;;;;;6.8;1.1;;;;;;;;;;;;;-76
2023/01/04 09:01:47;;;;;;;;;;;;;;;10.06;100;101271.9;;;;-75
2023/01/04 09:06:46;;;;;;;;;;;;;;;10.08;100;101295;;;;-77
2023/01/04 09:11:46;;;;;;;;;;;;;;;10.1;100;101275.1;;;;-78
2023/01/04 09:16:46;;;;;;;;;;;;;;;10.11;100;101289.1;;;;-76
2023/01/04 09:21:46;;;;;;;;;;;;;;;10.15;100;101297.3;;;;-75
2023/01/04 09:26:46;;;;;;;;;;;;;;;10.16;100;101287.7;;;;-76
2023/01/04 09:27:00;;;;;;;19.9;2.7;;;;;;;;;;;;;-76
2023/01/04 09:31:46;;;;;;;;;;;;;;;10.19;100;101284;;;;-75
2023/01/04 09:36:46;;;;;;;;;;;;;;;10.19;100;101283;;;;-75
2023/01/04 09:41:52;;;;;;;;;;;;;;;10.22;100;101292.4;;;;-75
2023/01/04 09:46:49;;;;;;;;;;;;;;;10.24;100;101302.8;;;;-74
2023/01/04 09:51:48;;;;;;;;;;;;;;;10.26;100;101293.6;;;;-74
2023/01/04 09:56:49;;;;;;;;;;;;;;;10.25;100;101291.1;;;;-74
2023/01/04 09:57:02;;;;;;;26.2;3.3;;;;;;;;;;;;;-75
2023/01/04 10:01:49;;;;;;;;;;;;;;;10.25;100;101284.4;;;;-74
2023/01/04 10:06:46;;;;;;;;;;;;;;;10.26;100;101295;;;;-74
2023/01/04 10:11:55;;;;;;;;;;;;;;;10.3;100;101291.1;;;;-75
2023/01/04 10:16:54;;;;;;;;;;;;;;;10.31;100;101275.5;;;;-73
2023/01/04 10:21:50;;;;;;;;;;;;;;;10.34;100;101283.4;;;;-73
2023/01/04 10:26:49;;;;;;;;;;;;;;;10.37;100;101263.8;;;;-73
2023/01/04 10:27:04;;;;;;;27.1;2.8;;;;;;;;;;;;;-75
2023/01/04 10:31:49;;;;;;;;;;;;;;;10.39;100;101258.3;;;;-74
2023/01/04 10:36:47;;;;;;;;;;;;;;;10.43;100;101266.5;;;;-73
2023/01/04 10:41:48;;;;;;;;;;;;;;;10.46;100;101272.4;;;;-74
2023/01/04 10:46:51;;;;;;;;;;;;;;;10.48;100;101262.4;;;;-73
2023/01/04 10:51:49;;;;;;;;;;;;;;;10.51;100;101270.7;;;;-73
2023/01/04 10:56:49;;;;;;;;;;;;;;;10.51;100;101281.2;;;;-74
2023/01/04 10:57:07;;;;;;;12.1;1.7;;;;;;;;;;;;;-74
2023/01/04 11:01:48;;;;;;;;;;;;;;;10.49;100;101267.9;;;;-75
2023/01/04 11:06:49;;;;;;;;;;;;;;;10.47;100;101235.1;;;;-75
2023/01/04 11:11:47;;;;;;;;;;;;;;;10.47;100;101234.4;;;;-75
2023/01/04 11:16:48;;;;;;;;;;;;;;;10.49;100;101236.9;;;;-75
2023/01/04 11:21:49;;;;;;;;;;;;;;;10.5;100;101269.8;;;;-75
2023/01/04 11:26:48;;;;;;;;;;;;;;;10.49;100;101220.1;;;;-77
2023/01/04 11:27:09;;;;;;;6.1;1.2;;;;;;;;;;;;;-77
2023/01/04 11:31:49;;;;;;;;;;;;;;;10.49;100;101222.4;;;;-76
2023/01/04 11:36:46;;;;;;;;;;;;;;;10.5;100;101224.1;;;;-76
2023/01/04 11:41:56;;;;;;;;;;;;;;;10.5;100;101221.5;;;;-74
2023/01/04 11:46:46;;;;;;;;;;;;;;;10.51;100;101237.4;;;;-73
2023/01/04 11:51:46;;;;;;;;;;;;;;;10.51;100;101222.9;;;;-74
2023/01/04 11:56:56;;;;;;;;;;;;;;;10.53;100;101228.5;;;;-76
2023/01/04 11:57:11;;;;;;;15.3;1.7;;;;;;;;;;;;;-76
2023/01/04 12:01:48;;;;;;;;;;;;;;;10.52;100;101226.5;;;;-76
2023/01/04 12:06:48;;;;;;;;;;;;;;;10.54;100;101227.2;;;;-74
2023/01/04 12:11:51;;;;;;;;;;;;;;;10.53;100;101216.6;;;;-75
2023/01/04 12:21:46;;;;;;;;;;;;;;;10.57;100;101210.1;;;;-74
2023/01/04 12:26:47;;;;;;;;;;;;;;;10.56;100;101208.6;;;;-74
2023/01/04 12:27:05;;;;;;;19.2;2.2;;;;;;;;;;;;;-73
2023/01/04 12:31:46;;;;;;;;;;;;;;;10.57;100;101215.3;;;;-74
2023/01/04 12:36:57;;;;;;;;;;;;;;;10.56;100;101208.3;;;;-74
2023/01/04 12:42:03;;;;;;;;;;;;;;;10.56;100;101234.7;;;;-75
2023/01/04 12:51:46;;;;;;;;;;;;;;;10.57;100;101224.4;;;;-76
2023/01/04 12:56:57;;;;;;;;;;;;;;;10.57;100;101218.7;;;;-74
2023/01/04 12:57:18;;;;;;;15;2.7;;;;;;;;;;;;;-74
2023/01/04 13:01:56;;;;;;;;;;;;;;;10.57;100;101229.2;;;;-74
2023/01/04 13:06:48;;;;;;;;;;;;;;;10.56;100;101227.1;;;;-74
2023/01/04 13:12:05;;;;;;;;;;;;;;;10.57;100;101231.1;;;;-74
2023/01/04 13:16:52;;;;;;;;;;;;;;;10.57;100;101238.8;;;;-74
2023/01/04 13:21:47;;;;;;;;;;;;;;;10.56;100;101245.8;;;;-74
2023/01/04 13:26:47;;;;;;;;;;;;;;;10.56;100;101258.1;;;;-74
2023/01/04 13:27:11;;;;;;;12.5;1.9;;;;;;;;;;;;;-73
2023/01/04 13:31:53;;;;;;;;;;;;;;;10.54;100;101251.6;;;;-74
2023/01/04 13:36:46;;;;;;;;;;;;;;;10.52;100;101232.4;;;;-73
2023/01/04 13:41:46;;;;;;;;;;;;;;;10.51;100;101230.8;;;;-73
2023/01/04 13:46:47;;;;;;;;;;;;;;;10.51;100;101216.5;;;;-74
2023/01/04 13:51:46;;;;;;;;;;;;;;;10.51;100;101218.2;;;;-74
2023/01/04 13:56:46;;;;;;;;;;;;;;;10.5;100;101230.9;;;;-73
2023/01/04 13:57:19;;;;;;;10.4;1.9;;;;;;;;;;;;;-73
2023/01/04 14:01:49;;;;;;;;;;;;;;;10.51;100;101211;;;;-74
2023/01/04 14:06:48;;;;;;;;;;;;;;;10.51;100;101214.8;;;;-74
2023/01/04 14:12:01;;;;;;;;;;;;;;;10.49;100;101212.9;;;;-73
2023/01/04 14:16:46;;;;;;;;;;;;;;;10.47;100;101210.3;;;;-74
2023/01/04 14:21:48;;;;;;;;;;;;;;;10.46;100;101223.3;;;;-73
2023/01/04 14:26:46;;;;;;;;;;;;;;;10.44;100;101208;;;;-73
2023/01/04 14:27:18;;;;;;;12.6;1.7;;;;;;;;;;;;;-74
2023/01/04 14:31:46;;;;;;;;;;;;;;;10.43;100;101204.5;;;;-74
2023/01/04 14:36:46;;;;;;;;;;;;;;;10.43;100;101204.1;;;;-72
2023/01/04 14:41:56;;;;;;;;;;;;;;;10.39;100;101204.4;;;;-74
2023/01/04 14:46:46;;;;;;;;;;;;;;;10.38;100;101235.9;;;;-74
2023/01/04 14:51:49;;;;;;;;;;;;;;;10.38;100;101228.8;;;;-73
2023/01/04 14:56:46;;;;;;;;;;;;;;;10.37;100;101216.2;;;;-72
2023/01/04 14:57:09;;;;;;;16.7;2.2;;;;;;;;;;;;;-73
2023/01/04 15:01:46;;;;;;;;;;;;;;;10.37;100;101234.9;;;;-73
2023/01/04 15:06:54;;;;;;;;;;;;;;;10.37;100;101216.9;;;;-74
2023/01/04 15:11:46;;;;;;;;;;;;;;;10.38;100;101235.8;;;;-74
2023/01/04 15:16:46;;;;;;;;;;;;;;;10.37;100;101216.8;;;;-73
2023/01/04 15:21:46;;;;;;;;;;;;;;;10.36;100;101201.1;;;;-73
2023/01/04 15:26:47;;;;;;;;;;;;;;;10.34;100;101220.6;;;;-74
2023/01/04 15:27:10;;;;;;;14.5;2.1;;;;;;;;;;;;;-74
2023/01/04 15:31:46;;;;;;;;;;;;;;;10.3;100;101216.3;;;;-72
2023/01/04 15:36:46;;;;;;;;;;;;;;;10.29;100;101210;;;;-74
2023/01/04 15:46:46;;;;;;;;;;;;;;;10.27;100;101207;;;;-73
2023/01/04 15:51:46;;;;;;;;;;;;;;;10.25;100;101212.3;;;;-73
2023/01/04 15:56:46;;;;;;;;;;;;;;;10.26;100;101219.9;;;;-73
2023/01/04 15:57:12;;;;;;;18.6;2.9;;;;;;;;;;;;;-73
2023/01/04 16:01:46;;;;;;;;;;;;;;;10.26;100;101241.2;;;;-73
2023/01/04 16:06:46;;;;;;;;;;;;;;;10.26;100;101236;;;;-72
2023/01/04 16:16:46;;;;;;;;;;;;;;;10.25;100;101241.2;;;;-74
2023/01/04 16:21:46;;;;;;;;;;;;;;;10.24;100;101239;;;;-75
2023/01/04 16:26:46;;;;;;;;;;;;;;;10.21;100;101239.8;;;;-77
2023/01/04 16:27:12;;;;;;;19.4;2.8;;;;;;;;;;;;;-77
2023/01/04 16:31:46;;;;;;;;;;;;;;;10.17;100;101238.4;;;;-77
2023/01/04 16:36:46;;;;;;;;;;;;;;;10.13;100;101223;;;;-77
2023/01/04 16:41:46;;;;;;;;;;;;;;;10.12;100;101234.2;;;;-77
2023/01/04 16:46:47;;;;;;;;;;;;;;;10.12;100;101243;;;;-77
2023/01/04 16:51:47;;;;;;;;;;;;;;;10.11;100;101247.5;;;;-76
2023/01/04 16:56:47;;;;;;;;;;;;;;;10.11;100;101261.6;;;;-77
2023/01/04 16:57:12;;;;;;;21.1;3.2;;;;;;;;;;;;;-77
2023/01/04 17:01:46;;;;;;;;;;;;;;;10.08;100;101276.2;;;;-76
2023/01/04 17:06:46;;;;;;;;;;;;;;;10.06;100;101269.8;;;;-76
2023/01/04 17:11:55;;;;;;;;;;;;;;;10.03;100;101273.4;;;;-76
2023/01/04 17:17:29;;;;;;;;;;;;;;;10.08;100;101270.8;;;;-76
2023/01/04 17:20:27;;;;;;;;;;;;;;;9.98;100;101266.3;;;;-77
2023/01/04 17:25:28;;;;;;;;;;;;;;;9.94;100;101273.5;;;;-78
2023/01/04 17:27:13;;;;;;;15.4;2.8;;;;;;;;;;;;;-76
2023/01/04 17:30:27;;;;;;;;;;;;;;;9.91;100;101283.8;;;;-78
2023/01/04 17:35:27;;;;;;;;;;;;;;;9.92;100;101287.6;;;;-78
2023/01/04 17:40:27;;;;;;;;;;;;;;;9.93;100;101302.1;;;;-78
2023/01/04 17:45:33;;;;;;;;;;;;;;;9.92;100;101297.5;;;;-76
2023/01/04 17:50:27;;;;;;;;;;;;;;;9.94;100;101302.3;;;;-75
2023/01/04 17:55:30;;;;;;;;;;;;;;;9.95;100;101306.8;;;;-79
2023/01/04 17:57:13;;;;;;;22.9;3.5;;;;;;;;;;;;;-79
2023/01/04 18:00:28;;;;;;;;;;;;;;;9.94;100;101298.8;;;;-82
2023/01/04 18:05:30;;;;;;;;;;;;;;;9.94;100;101298.8;;;;-77
2023/01/04 18:10:27;;;;;;;;;;;;;;;9.96;100;101297.3;;;;-76
2023/01/04 18:15:27;;;;;;;;;;;;;;;9.96;100;101303.9;;;;-76
2023/01/04 18:20:28;;;;;;;;;;;;;;;9.95;100;101302.5;;;;-77
2023/01/04 18:25:31;;;;;;;;;;;;;;;9.97;100;101313.1;;;;-77
2023/01/04 18:27:15;;;;;;;27.5;3.9;;;;;;;;;;;;;-77
2023/01/04 18:30:27;;;;;;;;;;;;;;;9.97;100;101306.8;;;;-78
2023/01/04 18:35:28;;;;;;;;;;;;;;;9.96;100;101327.4;;;;-76
2023/01/04 18:40:27;;;;;;;;;;;;;;;9.97;100;101304.2;;;;-76
2023/01/04 18:45:29;;;;;;;;;;;;;;;9.96;100;101311.5;;;;-75
2023/01/04 18:50:27;;;;;;;;;;;;;;;9.94;100;101312.5;;;;-76
2023/01/04 18:55:27;;;;;;;;;;;;;;;9.93;100;101334.6;;;;-73
2023/01/04 18:57:17;;;;;;;25.7;3.8;;;;;;;;;;;;;-73
2023/01/04 19:00:28;;;;;;;;;;;;;;;9.93;100;101299.5;;;;-74
2023/01/04 19:05:28;;;;;;;;;;;;;;;9.93;100;101317.1;;;;-74
2023/01/04 19:10:40;;;;;;;;;;;;;;;9.92;100;101319.1;;;;-73
2023/01/04 19:15:27;;;;;;;;;;;;;;;9.92;100;101335.3;;;;-77
2023/01/04 19:20:27;;;;;;;;;;;;;;;9.91;100;101335.8;;;;-75
2023/01/04 19:25:28;;;;;;;;;;;;;;;9.86;100;101333.4;;;;-75
2023/01/04 19:27:15;;;;;;;28.5;4;;;;;;;;;;;;;-74
2023/01/04 19:30:27;;;;;;;;;;;;;;;9.82;100;101348.1;;;;-74
2023/01/04 19:35:28;;;;;;;;;;;;;;;9.81;100;101361.2;;;;-74
2023/01/04 19:40:28;;;;;;;;;;;;;;;9.77;100;101358;;;;-75
2023/01/04 19:45:28;;;;;;;;;;;;;;;9.74;100;101358.9;;;;-73
2023/01/04 19:50:27;;;;;;;;;;;;;;;9.71;100;101370.8;;;;-74
2023/01/04 19:55:28;;;;;;;;;;;;;;;9.68;100;101374.5;;;;-75
2023/01/04 19:57:16;;;;;;;24.9;3.4;;;;;;;;;;;;;-74
2023/01/04 20:00:29;;;;;;;;;;;;;;;9.66;100;101367.7;;;;-74
2023/01/04 20:05:27;;;;;;;;;;;;;;;9.64;100;101372;;;;-74
2023/01/04 20:10:27;;;;;;;;;;;;;;;9.65;100;101391.4;;;;-74
2023/01/04 20:15:31;;;;;;;;;;;;;;;9.66;100;101392.9;;;;-75
2023/01/04 20:20:27;;;;;;;;;;;;;;;9.63;100;101391.2;;;;-73
2023/01/04 20:25:27;;;;;;;;;;;;;;;9.63;100;101404.5;;;;-74
2023/01/04 20:27:16;;;;;;;18.7;2.9;;;;;;;;;;;;;-74
2023/01/04 20:30:27;;;;;;;;;;;;;;;9.63;100;101393;;;;-74
2023/01/04 20:35:28;;;;;;;;;;;;;;;9.62;100;101405.9;;;;-74
2023/01/04 20:40:27;;;;;;;;;;;;;;;9.58;100;101408.5;;;;-74
2023/01/04 20:45:29;;;;;;;;;;;;;;;9.57;100;101410.6;;;;-74
2023/01/04 20:50:27;;;;;;;;;;;;;;;9.56;100;101419.5;;;;-75
2023/01/04 20:55:27;;;;;;;;;;;;;;;9.56;100;101429.5;;;;-74
2023/01/04 20:57:19;;;;;;;28.9;4.1;;;;;;;;;;;;;-73
2023/01/04 21:00:27;;;;;;;;;;;;;;;9.56;100;101414.2;;;;-74
2023/01/04 21:05:29;;;;;;;;;;;;;;;9.55;100;101442.2;;;;-74
2023/01/04 21:10:27;;;;;;;;;;;;;;;9.52;100;101433.2;;;;-73
2023/01/04 21:15:27;;;;;;;;;;;;;;;9.49;100;101446.7;;;;-73
2023/01/04 21:20:27;;;;;;;;;;;;;;;9.48;100;101450.3;;;;-77
2023/01/04 21:25:27;;;;;;;;;;;;;;;9.46;100;101451.7;;;;-75
2023/01/04 21:27:17;;;;;;;28.2;3.3;;;;;;;;;;;;;-76
2023/01/04 21:30:27;;;;;;;;;;;;;;;9.44;100;101462.3;;;;-76
2023/01/04 21:35:27;;;;;;;;;;;;;;;9.43;100;101462.4;;;;-76
2023/01/04 21:40:27;;;;;;;;;;;;;;;9.42;100;101471.9;;;;-77
2023/01/04 21:45:28;;;;;;;;;;;;;;;9.4;100;101463.9;;;;-77
2023/01/04 21:50:29;;;;;;;;;;;;;;;9.39;100;101465;;;;-74
2023/01/04 21:55:29;;;;;;;;;;;;;;;9.38;100;101466;;;;-73
2023/01/04 21:57:18;;;;;;;25.2;3.3;;;;;;;;;;;;;-73
2023/01/04 22:00:27;;;;;;;;;;;;;;;9.37;100;101472.5;;;;-73
2023/01/04 22:05:27;;;;;;;;;;;;;;;9.38;100;101470.3;;;;-74
2023/01/04 22:10:27;;;;;;;;;;;;;;;9.38;100;101460.4;;;;-74
2023/01/04 22:15:27;;;;;;;;;;;;;;;9.38;100;101473.3;;;;-74
2023/01/04 22:20:27;;;;;;;;;;;;;;;9.38;100;101489.3;;;;-74
2023/01/04 22:25:27;;;;;;;;;;;;;;;9.39;100;101497;;;;-74
2023/01/04 22:27:19;;;;;;;25.3;3.6;;;;;;;;;;;;;-73
2023/01/04 22:30:28;;;;;;;;;;;;;;;9.4;100;101491.6;;;;-74
2023/01/04 22:35:27;;;;;;;;;;;;;;;9.41;100;101505.3;;;;-75
2023/01/04 22:40:27;;;;;;;;;;;;;;;9.4;100;101517.1;;;;-73
2023/01/04 22:45:27;;;;;;;;;;;;;;;9.4;100;101517.8;;;;-73
2023/01/04 22:50:27;;;;;;;;;;;;;;;9.4;100;101519.3;;;;-72
2023/01/04 22:55:27;;;;;;;;;;;;;;;9.39;100;101534;;;;-73
2023/01/04 22:57:19;;;;;;;30.3;3.6;;;;;;;;;;;;;-73
2023/01/04 23:00:27;;;;;;;;;;;;;;;9.37;100;101530.2;;;;-73
2023/01/04 23:05:27;;;;;;;;;;;;;;;9.36;100;101528.4;;;;-74
2023/01/04 23:10:27;;;;;;;;;;;;;;;9.32;100;101527.3;;;;-74
2023/01/04 23:15:27;;;;;;;;;;;;;;;9.26;100;101536.9;;;;-76
2023/01/04 23:20:27;;;;;;;;;;;;;;;9.2;100;101542.7;;;;-76
2023/01/04 23:25:27;;;;;;;;;;;;;;;9.15;100;101541.4;;;;-77
2023/01/04 23:27:20;;;;;;;23.5;3.1;;;;;;;;;;;;;-77
2023/01/04 23:30:27;;;;;;;;;;;;;;;9.09;100;101555.1;;;;-77
2023/01/04 23:35:27;;;;;;;;;;;;;;;9.04;100;101551.3;;;;-76
2023/01/04 23:40:27;;;;;;;;;;;;;;;8.99;100;101560.3;;;;-77
2023/01/04 23:45:29;;;;;;;;;;;;;;;8.95;100;101569.8;;;;-76
2023/01/04 23:50:27;;;;;;;;;;;;;;;8.91;100;101572.3;;;;-73
2023/01/04 23:55:27;;;;;;;;;;;;;;;8.88;100;101569.3;;;;-74
2023/01/04 23:57:20;;;;;;;29.7;3.4;;;;;;;;;;;;;-73
